sensor_id;sensor_type;location;lat;lon;timestamp;pressure;altitude;pressure_sealevel;temperature;humidity
13732;BME280;6937;56.096;12.664;2023-02-28T00:00:49;103133.75;;;2.35;100.00
13732;BME280;6937;56.096;12.664;2023-02-28T00:03:15;103132.84;;;2.30;100.00
13732;BME280;6937;56.096;12.664;2023-02-28T00:05:40;103138.16;;;2.32;100.00
13732;BME280;6937;56.096;12.664;2023-02-28T00:08:07;103144.28;;;2.35;100.00
13732;BME280;6937;56.096;12.664;2023-02-28T00:10:32;103139.91;;;2.39;100.00
13732;BME280;6937;56.096;12.664;2023-02-28T00:13:03;103136.38;;;2.32;100.00
13732;BME280;6937;56.096;12.664;2023-02-28T00:15:29;103134.63;;;2.27;100.00
13732;BME280;6937;56.096;12.664;2023-02-28T00:17:55;103140.75;;;2.33;100.00
13732;BME280;6937;56.096;12.664;2023-02-28T00:20:20;103151.31;;;2.38;100.00
13732;BME280;6937;56.096;12.664;2023-02-28T00:22:48;103151.31;;;2.33;100.00
13732;BME280;6937;56.096;12.664;2023-02-28T00:25:16;103140.75;;;2.33;100.00
13732;BME280;6937;56.096;12.664;2023-02-28T00:27:42;103146.06;;;2.24;100.00
13732;BME280;6937;56.096;12.664;2023-02-28T00:30:11;103146.03;;;2.15;100.00
13732;BME280;6937;56.096;12.664;2023-02-28T00:32:37;103157.47;;;2.19;100.00
13732;BME280;6937;56.096;12.664;2023-02-28T00:35:03;103157.47;;;2.23;100.00
13732;BME280;6937;56.096;12.664;2023-02-28T00:37:29;103162.75;;;2.28;100.00
13732;BME280;6937;56.096;12.664;2023-02-28T00:39:54;103168.03;;;2.26;100.00
13732;BME280;6937;56.096;12.664;2023-02-28T00:42:20;103168.03;;;2.22;100.00
13732;BME280;6937;56.096;12.664;2023-02-28T00:44:45;103173.31;;;2.19;100.00
13732;BME280;6937;56.096;12.664;2023-02-28T00:47:10;103180.34;;;2.24;100.00
13732;BME280;6937;56.096;12.664;2023-02-28T00:49:36;103185.63;;;2.35;100.00
13732;BME280;6937;56.096;12.664;2023-02-28T00:52:02;103198.81;;;2.44;100.00
13732;BME280;6937;56.096;12.664;2023-02-28T00:54:27;103200.59;;;2.50;100.00
13732;BME280;6937;56.096;12.664;2023-02-28T00:56:53;103207.63;;;2.57;100.00
13732;BME280;6937;56.096;12.664;2023-02-28T00:59:18;103206.75;;;2.55;100.00
13732;BME280;6937;56.096;12.664;2023-02-28T01:01:45;103205.88;;;2.54;100.00
13732;BME280;6937;56.096;12.664;2023-02-28T01:04:11;103216.44;;;2.50;100.00
13732;BME280;6937;56.096;12.664;2023-02-28T01:06:36;103208.50;;;2.45;100.00
13732;BME280;6937;56.096;12.664;2023-02-28T01:09:03;103210.25;;;2.44;100.00
13732;BME280;6937;56.096;12.664;2023-02-28T01:11:29;103213.78;;;2.47;100.00
13732;BME280;6937;56.096;12.664;2023-02-28T01:13:54;103220.81;;;2.46;100.00
13732;BME280;6937;56.096;12.664;2023-02-28T01:16:20;103204.09;;;2.27;100.00
13732;BME280;6937;56.096;12.664;2023-02-28T01:18:45;103218.19;;;2.25;100.00
13732;BME280;6937;56.096;12.664;2023-02-28T01:21:13;103204.97;;;2.16;100.00
13732;BME280;6937;56.096;12.664;2023-02-28T01:23:40;103220.78;;;2.13;100.00
13732;BME280;6937;56.096;12.664;2023-02-28T01:26:16;103216.38;;;2.07;100.00
13732;BME280;6937;56.096;12.664;2023-02-28T01:28:42;103213.72;;;1.98;100.00
13732;BME280;6937;56.096;12.664;2023-02-28T01:31:08;103202.28;;;1.96;100.00
13732;BME280;6937;56.096;12.664;2023-02-28T01:33:33;103209.31;;;1.94;100.00
13732;BME280;6937;56.096;12.664;2023-02-28T01:36:00;103207.56;;;1.96;100.00
13732;BME280;6937;56.096;12.664;2023-02-28T01:38:26;103211.09;;;1.98;100.00
13732;BME280;6937;56.096;12.664;2023-02-28T01:40:51;103221.63;;;2.00;100.00
13732;BME280;6937;56.096;12.664;2023-02-28T01:43:32;103228.69;;;2.02;100.00
13732;BME280;6937;56.096;12.664;2023-02-28T01:45:58;103226.06;;;2.02;100.00
13732;BME280;6937;56.096;12.664;2023-02-28T01:48:35;103220.75;;;1.98;100.00
13732;BME280;6937;56.096;12.664;2023-02-28T01:51:09;103223.38;;;1.99;100.00
13732;BME280;6937;56.096;12.664;2023-02-28T01:53:43;103219.00;;;1.97;100.00
13732;BME280;6937;56.096;12.664;2023-02-28T01:56:12;103214.59;;;1.97;100.00
13732;BME280;6937;56.096;12.664;2023-02-28T01:58:47;103214.56;;;1.92;100.00
13732;BME280;6937;56.096;12.664;2023-02-28T02:01:12;103216.31;;;1.78;100.00
13732;BME280;6937;56.096;12.664;2023-02-28T02:04:04;103215.41;;;1.75;100.00
13732;BME280;6937;56.096;12.664;2023-02-28T02:06:39;103214.53;;;1.80;100.00
13732;BME280;6937;56.096;12.664;2023-02-28T02:09:05;103216.31;;;1.86;100.00
13732;BME280;6937;56.096;12.664;2023-02-28T02:11:31;103218.97;;;1.89;100.00
13732;BME280;6937;56.096;12.664;2023-02-28T02:19:46;103227.66;;;1.65;100.00
13732;BME280;6937;56.096;12.664;2023-02-28T02:25:27;103222.41;;;1.64;100.00
13732;BME280;6937;56.096;12.664;2023-02-28T02:30:55;103240.00;;;1.77;100.00
13732;BME280;6937;56.096;12.664;2023-02-28T02:36:18;103240.94;;;1.88;100.00
13732;BME280;6937;56.096;12.664;2023-02-28T02:38:53;103245.34;;;1.92;100.00
13732;BME280;6937;56.096;12.664;2023-02-28T02:44:12;103242.72;;;1.90;100.00
13732;BME280;6937;56.096;12.664;2023-02-28T02:46:42;103248.88;;;1.94;100.00
13732;BME280;6937;56.096;12.664;2023-02-28T02:49:13;103246.22;;;1.95;100.00
13732;BME280;6937;56.096;12.664;2023-02-28T02:51:41;103234.75;;;1.72;100.00
13732;BME280;6937;56.096;12.664;2023-02-28T02:56:36;103249.69;;;1.76;100.00
13732;BME280;6937;56.096;12.664;2023-02-28T02:59:07;103252.34;;;1.85;100.00
13732;BME280;6937;56.096;12.664;2023-02-28T03:01:34;103250.56;;;1.78;100.00
13732;BME280;6937;56.096;12.664;2023-02-28T03:04:11;103258.53;;;1.89;100.00
13732;BME280;6937;56.096;12.664;2023-02-28T03:06:38;103259.41;;;1.92;100.00
13732;BME280;6937;56.096;12.664;2023-02-28T03:09:03;103261.19;;;1.90;100.00
13732;BME280;6937;56.096;12.664;2023-02-28T03:11:30;103250.63;;;1.87;100.00
13732;BME280;6937;56.096;12.664;2023-02-28T03:14:19;103252.38;;;1.88;100.00
13732;BME280;6937;56.096;12.664;2023-02-28T03:19:34;103257.66;;;1.96;100.00
13732;BME280;6937;56.096;12.664;2023-02-28T03:27:41;103250.59;;;1.81;100.00
13732;BME280;6937;56.096;12.664;2023-02-28T03:30:17;103239.97;;;1.60;100.00
13732;BME280;6937;56.096;12.664;2023-02-28T03:32:55;103253.13;;;1.59;100.00
13732;BME280;6937;56.096;12.664;2023-02-28T03:35:26;103259.28;;;1.65;100.00
13732;BME280;6937;56.096;12.664;2023-02-28T03:38:00;103254.88;;;1.55;100.00
13732;BME280;6937;56.096;12.664;2023-02-28T03:40:31;103253.97;;;1.45;100.00
13732;BME280;6937;56.096;12.664;2023-02-28T03:43:03;103251.25;;;1.36;100.00
13732;BME280;6937;56.096;12.664;2023-02-28T03:45:34;103251.22;;;1.27;100.00
13732;BME280;6937;56.096;12.664;2023-02-28T03:48:16;103252.94;;;1.19;100.00
13732;BME280;6937;56.096;12.664;2023-02-28T03:50:46;103259.94;;;1.20;100.00
13732;BME280;6937;56.096;12.664;2023-02-28T03:53:28;103270.53;;;1.28;100.00
13732;BME280;6937;56.096;12.664;2023-02-28T03:56:01;103265.28;;;1.35;100.00
13732;BME280;6937;56.096;12.664;2023-02-28T03:58:48;103269.72;;;1.41;100.00
13732;BME280;6937;56.096;12.664;2023-02-28T04:01:27;103276.78;;;1.48;100.00
13732;BME280;6937;56.096;12.664;2023-02-28T04:03:55;103280.31;;;1.50;100.00
13732;BME280;6937;56.096;12.664;2023-02-28T04:06:22;103280.31;;;1.50;100.00
13732;BME280;6937;56.096;12.664;2023-02-28T04:08:49;103286.44;;;1.41;100.00
13732;BME280;6937;56.096;12.664;2023-02-28T04:13:39;103292.53;;;1.36;100.00
13732;BME280;6937;56.096;12.664;2023-02-28T04:16:08;103301.34;;;1.38;100.00
13732;BME280;6937;56.096;12.664;2023-02-28T04:18:40;103311.03;;;1.43;100.00
13732;BME280;6937;56.096;12.664;2023-02-28T04:21:08;103315.44;;;1.46;100.00
13732;BME280;6937;56.096;12.664;2023-02-28T04:23:33;103318.09;;;1.49;100.00
13732;BME280;6937;56.096;12.664;2023-02-28T04:25:58;103328.66;;;1.55;100.00
13732;BME280;6937;56.096;12.664;2023-02-28T04:28:24;103334.81;;;1.56;100.00
13732;BME280;6937;56.096;12.664;2023-02-28T04:31:02;103335.72;;;1.59;100.00
13732;BME280;6937;56.096;12.664;2023-02-28T04:33:28;103343.63;;;1.56;100.00
13732;BME280;6937;56.096;12.664;2023-02-28T04:36:01;103350.59;;;1.51;100.00
13732;BME280;6937;56.096;12.664;2023-02-28T04:38:28;103354.97;;;1.46;100.00
13732;BME280;6937;56.096;12.664;2023-02-28T04:40:53;103359.31;;;1.42;100.00
13732;BME280;6937;56.096;12.664;2023-02-28T04:43:18;103363.69;;;1.37;100.00
13732;BME280;6937;56.096;12.664;2023-02-28T04:45:44;103364.59;;;1.41;100.00
13732;BME280;6937;56.096;12.664;2023-02-28T04:48:09;103390.13;;;1.48;100.00
13732;BME280;6937;56.096;12.664;2023-02-28T04:50:34;103395.44;;;1.56;100.00
13732;BME280;6937;56.096;12.664;2023-02-28T04:53:00;103397.22;;;1.60;100.00
13732;BME280;6937;56.096;12.664;2023-02-28T04:55:25;103396.31;;;1.58;100.00
13732;BME280;6937;56.096;12.664;2023-02-28T04:57:50;103409.50;;;1.56;100.00
13732;BME280;6937;56.096;12.664;2023-02-28T05:00:16;103412.13;;;1.55;100.00
13732;BME280;6937;56.096;12.664;2023-02-28T05:02:42;103421.78;;;1.56;100.00
13732;BME280;6937;56.096;12.664;2023-02-28T05:05:08;103420.88;;;1.52;100.00
13732;BME280;6937;56.096;12.664;2023-02-28T05:07:33;103421.75;;;1.50;100.00
13732;BME280;6937;56.096;12.664;2023-02-28T05:09:58;103431.41;;;1.51;100.00
13732;BME280;6937;56.096;12.664;2023-02-28T05:12:24;103433.19;;;1.52;100.00
13732;BME280;6937;56.096;12.664;2023-02-28T05:14:50;103436.72;;;1.58;100.00
13732;BME280;6937;56.096;12.664;2023-02-28T05:17:15;103441.16;;;1.59;100.00
13732;BME280;6937;56.096;12.664;2023-02-28T05:19:40;103454.31;;;1.59;100.00
13732;BME280;6937;56.096;12.664;2023-02-28T05:22:13;103451.72;;;1.64;100.00
13732;BME280;6937;56.096;12.664;2023-02-28T05:24:39;103464.03;;;1.66;100.00
13732;BME280;6937;56.096;12.664;2023-02-28T05:27:05;103474.63;;;1.71;100.00
13732;BME280;6937;56.096;12.664;2023-02-28T05:29:30;103480.78;;;1.73;100.00
13732;BME280;6937;56.096;12.664;2023-02-28T05:31:56;103487.84;;;1.72;100.00
13732;BME280;6937;56.096;12.664;2023-02-28T05:34:21;103499.25;;;1.74;100.00
13732;BME280;6937;56.096;12.664;2023-02-28T05:36:46;103508.94;;;1.77;100.00
13732;BME280;6937;56.096;12.664;2023-02-28T05:39:12;103514.25;;;1.78;100.00
13732;BME280;6937;56.096;12.664;2023-02-28T05:41:39;103523.03;;;1.80;100.00
13732;BME280;6937;56.096;12.664;2023-02-28T05:44:05;103527.47;;;1.83;100.00
13732;BME280;6937;56.096;12.664;2023-02-28T05:46:30;103539.75;;;1.81;100.00
13732;BME280;6937;56.096;12.664;2023-02-28T05:48:56;103544.19;;;1.83;100.00
13732;BME280;6937;56.096;12.664;2023-02-28T05:51:23;103542.41;;;1.82;100.00
13732;BME280;6937;56.096;12.664;2023-02-28T05:53:48;103567.94;;;1.89;100.00
13732;BME280;6937;56.096;12.664;2023-02-28T05:56:14;103568.78;;;1.85;100.00
13732;BME280;6937;56.096;12.664;2023-02-28T05:58:39;103577.63;;;1.87;100.00
13732;BME280;6937;56.096;12.664;2023-02-28T06:01:40;103574.09;;;1.87;100.00
13732;BME280;6937;56.096;12.664;2023-02-28T06:04:08;103586.34;;;1.85;100.00
13732;BME280;6937;56.096;12.664;2023-02-28T06:06:34;103591.63;;;1.85;100.00
13732;BME280;6937;56.096;12.664;2023-02-28T06:09:02;103590.75;;;1.84;100.00
13732;BME280;6937;56.096;12.664;2023-02-28T06:11:27;103597.78;;;1.85;100.00
13732;BME280;6937;56.096;12.664;2023-02-28T06:13:54;103596.84;;;1.80;100.00
13732;BME280;6937;56.096;12.664;2023-02-28T06:16:20;103606.56;;;1.80;100.00
13732;BME280;6937;56.096;12.664;2023-02-28T06:18:46;103608.28;;;1.81;100.00
13732;BME280;6937;56.096;12.664;2023-02-28T06:21:12;103615.41;;;1.86;100.00
13732;BME280;6937;56.096;12.664;2023-02-28T06:23:37;103629.47;;;1.88;100.00
13732;BME280;6937;56.096;12.664;2023-02-28T06:26:03;103640.94;;;1.95;100.00
13732;BME280;6937;56.096;12.664;2023-02-28T06:28:28;103639.22;;;1.97;100.00
13732;BME280;6937;56.096;12.664;2023-02-28T06:30:53;103649.81;;;1.99;100.00
13732;BME280;6937;56.096;12.664;2023-02-28T06:33:19;103666.53;;;2.02;100.00
13732;BME280;6937;56.096;12.664;2023-02-28T06:35:46;103665.63;;;2.00;100.00
13732;BME280;6937;56.096;12.664;2023-02-28T06:38:12;103667.38;;;2.00;100.00
13732;BME280;6937;56.096;12.664;2023-02-28T06:40:37;103670.03;;;2.01;100.00
13732;BME280;6937;56.096;12.664;2023-02-28T06:43:03;103679.72;;;2.02;100.00
13732;BME280;6937;56.096;12.664;2023-02-28T06:45:28;103681.47;;;2.03;100.00
13732;BME280;6937;56.096;12.664;2023-02-28T06:47:54;103685.91;;;2.07;100.00
13732;BME280;6937;56.096;12.664;2023-02-28T06:50:20;103690.28;;;2.07;100.00
13732;BME280;6937;56.096;12.664;2023-02-28T06:52:46;103691.22;;;2.10;100.00
13732;BME280;6937;56.096;12.664;2023-02-28T06:55:12;103692.13;;;2.12;100.00
13732;BME280;6937;56.096;12.664;2023-02-28T06:57:37;103685.94;;;2.10;100.00
13732;BME280;6937;56.096;12.664;2023-02-28T07:00:08;103690.38;;;2.14;100.00
13732;BME280;6937;56.096;12.664;2023-02-28T07:02:35;103693.94;;;2.19;100.00
13732;BME280;6937;56.096;12.664;2023-02-28T07:05:00;103694.03;;;2.27;100.00
13732;BME280;6937;56.096;12.664;2023-02-28T07:07:25;103698.47;;;2.32;100.00
13732;BME280;6937;56.096;12.664;2023-02-28T07:09:51;103702.94;;;2.41;100.00
13732;BME280;6937;56.096;12.664;2023-02-28T07:12:16;103702.09;;;2.48;100.00
13732;BME280;6937;56.096;12.664;2023-02-28T07:14:42;103706.53;;;2.51;100.00
13732;BME280;6937;56.096;12.664;2023-02-28T07:17:09;103711.88;;;2.58;100.00
13732;BME280;6937;56.096;12.664;2023-02-28T07:19:35;103716.34;;;2.65;100.00
13732;BME280;6937;56.096;12.664;2023-02-28T07:22:01;103712.84;;;2.71;100.00
13732;BME280;6937;56.096;12.664;2023-02-28T07:24:28;103719.97;;;2.81;100.00
13732;BME280;6937;56.096;12.664;2023-02-28T07:26:54;103722.66;;;2.90;100.00
13732;BME280;6937;56.096;12.664;2023-02-28T07:29:20;103724.50;;;2.96;100.00
13732;BME280;6937;56.096;12.664;2023-02-28T07:31:46;103726.28;;;3.03;100.00
13732;BME280;6937;56.096;12.664;2023-02-28T07:34:12;103716.63;;;3.09;100.00
13732;BME280;6937;56.096;12.664;2023-02-28T07:36:37;103708.75;;;3.14;100.00
13732;BME280;6937;56.096;12.664;2023-02-28T07:39:03;103702.59;;;3.19;100.00
13732;BME280;6937;56.096;12.664;2023-02-28T07:41:30;103698.25;;;3.26;100.00
13732;BME280;6937;56.096;12.664;2023-02-28T07:43:58;103692.94;;;3.30;100.00
13732;BME280;6937;56.096;12.664;2023-02-28T07:46:25;103692.06;;;3.31;100.00
13732;BME280;6937;56.096;12.664;2023-02-28T07:48:51;103685.06;;;3.36;100.00
13732;BME280;6937;56.096;12.664;2023-02-28T07:51:17;103679.78;;;3.39;100.00
13732;BME280;6937;56.096;12.664;2023-02-28T07:53:43;103678.00;;;3.41;100.00
13732;BME280;6937;56.096;12.664;2023-02-28T07:56:08;103681.53;;;3.42;100.00
13732;BME280;6937;56.096;12.664;2023-02-28T07:58:36;103689.50;;;3.50;100.00
13732;BME280;6937;56.096;12.664;2023-02-28T08:01:09;103696.63;;;3.60;100.00
13732;BME280;6937;56.096;12.664;2023-02-28T08:03:36;103689.56;;;3.65;100.00
13732;BME280;6937;56.096;12.664;2023-02-28T08:06:03;103687.81;;;3.70;100.00
13732;BME280;6937;56.096;12.664;2023-02-28T08:08:29;103684.31;;;3.77;100.00
13732;BME280;6937;56.096;12.664;2023-02-28T08:10:58;103682.56;;;3.82;100.00
13732;BME280;6937;56.096;12.664;2023-02-28T08:13:24;103682.56;;;3.88;100.00
13732;BME280;6937;56.096;12.664;2023-02-28T08:15:50;103672.84;;;3.90;100.00
13732;BME280;6937;56.096;12.664;2023-02-28T08:18:15;103661.41;;;3.94;100.00
13732;BME280;6937;56.096;12.664;2023-02-28T08:20:41;103647.31;;;3.95;100.00
13732;BME280;6937;56.096;12.664;2023-02-28T08:23:06;103647.31;;;4.03;100.00
13732;BME280;6937;56.096;12.664;2023-02-28T08:25:32;103646.44;;;4.11;100.00
13732;BME280;6937;56.096;12.664;2023-02-28T08:27:58;103629.69;;;4.18;100.00
13732;BME280;6937;56.096;12.664;2023-02-28T08:30:23;103616.41;;;4.27;100.00
13732;BME280;6937;56.096;12.664;2023-02-28T08:32:49;103614.69;;;4.38;100.00
13732;BME280;6937;56.096;12.664;2023-02-28T08:35:14;103601.41;;;4.40;100.00
13732;BME280;6937;56.096;12.664;2023-02-28T08:37:40;103585.53;;;4.45;100.00
13732;BME280;6937;56.096;12.664;2023-02-28T08:40:06;103564.34;;;4.46;100.00
13732;BME280;6937;56.096;12.664;2023-02-28T08:42:32;103555.53;;;4.46;100.00
13732;BME280;6937;56.096;12.664;2023-02-28T08:44:57;103552.84;;;4.53;100.00
13732;BME280;6937;56.096;12.664;2023-02-28T08:47:23;103548.44;;;4.57;100.00
13732;BME280;6937;56.096;12.664;2023-02-28T08:49:48;103543.97;;;4.66;100.00
13732;BME280;6937;56.096;12.664;2023-02-28T08:52:13;103544.81;;;4.73;100.00
13732;BME280;6937;56.096;12.664;2023-02-28T08:54:39;103527.16;;;4.75;100.00
13732;BME280;6937;56.096;12.664;2023-02-28T08:57:04;103526.28;;;4.76;100.00
13732;BME280;6937;56.096;12.664;2023-02-28T08:59:30;103508.56;;;4.81;100.00
13732;BME280;6937;56.096;12.664;2023-02-28T09:01:55;103507.72;;;4.83;100.00
13732;BME280;6937;56.096;12.664;2023-02-28T09:04:21;103501.44;;;4.95;100.00
13732;BME280;6937;56.096;12.664;2023-02-28T09:06:46;103494.34;;;5.05;100.00
13732;BME280;6937;56.096;12.664;2023-02-28T09:09:13;103482.81;;;5.09;100.00
13732;BME280;6937;56.096;12.664;2023-02-28T09:11:39;103485.44;;;5.13;100.00
13732;BME280;6937;56.096;12.664;2023-02-28T09:14:04;103487.16;;;5.23;100.00
13732;BME280;6937;56.096;12.664;2023-02-28T09:16:31;103478.31;;;5.24;100.00
13732;BME280;6937;56.096;12.664;2023-02-28T09:18:57;103470.34;;;5.23;100.00
13732;BME280;6937;56.096;12.664;2023-02-28T09:21:22;103471.19;;;5.31;100.00
13732;BME280;6937;56.096;12.664;2023-02-28T09:23:49;103454.38;;;5.30;100.00
13732;BME280;6937;56.096;12.664;2023-02-28T09:26:20;103443.72;;;5.40;100.00
13732;BME280;6937;56.096;12.664;2023-02-28T09:28:47;103434.81;;;5.44;100.00
13732;BME280;6937;56.096;12.664;2023-02-28T09:31:15;103426.81;;;5.48;100.00
13732;BME280;6937;56.096;12.664;2023-02-28T09:33:40;103428.56;;;5.54;100.00
13732;BME280;6937;56.096;12.664;2023-02-28T09:36:06;103420.56;;;5.58;100.00
13732;BME280;6937;56.096;12.664;2023-02-28T09:38:31;103424.91;;;5.65;100.00
13732;BME280;6937;56.096;12.664;2023-02-28T09:41:00;103415.97;;;5.77;100.00
13732;BME280;6937;56.096;12.664;2023-02-28T09:43:29;103412.38;;;5.79;100.00
13732;BME280;6937;56.096;12.664;2023-02-28T09:48:35;103397.25;;;5.91;100.00
13732;BME280;6937;56.096;12.664;2023-02-28T09:53:48;103379.34;;;6.09;100.00
13732;BME280;6937;56.096;12.664;2023-02-28T09:56:20;103373.91;;;6.20;100.00
13732;BME280;6937;56.096;12.664;2023-02-28T10:01:46;103335.84;;;6.21;100.00
13732;BME280;6937;56.096;12.664;2023-02-28T10:04:38;103325.09;;;6.28;100.00
13732;BME280;6937;56.096;12.664;2023-02-28T10:07:18;103302.88;;;6.34;100.00
13732;BME280;6937;56.096;12.664;2023-02-28T10:09:50;103289.53;;;6.40;100.00
13732;BME280;6937;56.096;12.664;2023-02-28T10:12:17;103293.78;;;6.50;100.00
13732;BME280;6937;56.096;12.664;2023-02-28T10:14:46;103271.59;;;6.53;100.00
13732;BME280;6937;56.096;12.664;2023-02-28T10:17:26;103253.84;;;6.56;100.00
13732;BME280;6937;56.096;12.664;2023-02-28T10:19:57;103247.44;;;6.68;100.00
13732;BME280;6937;56.096;12.664;2023-02-28T10:22:53;103228.78;;;6.72;100.00
13732;BME280;6937;56.096;12.664;2023-02-28T10:25:25;103225.16;;;6.76;100.00
13732;BME280;6937;56.096;12.664;2023-02-28T10:27:53;103203.06;;;6.74;100.00
13732;BME280;6937;56.096;12.664;2023-02-28T10:30:19;103198.66;;;6.72;100.00
13732;BME280;6937;56.096;12.664;2023-02-28T10:32:51;103171.25;;;6.70;100.00
13732;BME280;6937;56.096;12.664;2023-02-28T10:35:19;103158.03;;;6.67;100.00
13732;BME280;6937;56.096;12.664;2023-02-28T10:37:48;103143.78;;;6.71;100.00
13732;BME280;6937;56.096;12.664;2023-02-28T10:43:01;103135.88;;;6.66;100.00
13732;BME280;6937;56.096;12.664;2023-02-28T10:45:29;103119.16;;;6.60;100.00
13732;BME280;6937;56.096;12.664;2023-02-28T10:48:24;103106.88;;;6.53;100.00
13732;BME280;6937;56.096;12.664;2023-02-28T10:55:57;103078.91;;;6.81;100.00
13732;BME280;6937;56.096;12.664;2023-02-28T10:58:25;103073.22;;;6.99;100.00
13732;BME280;6937;56.096;12.664;2023-02-28T11:00:52;103058.22;;;6.97;100.00
13732;BME280;6937;56.096;12.664;2023-02-28T11:03:34;103050.34;;;6.91;100.00
13732;BME280;6937;56.096;12.664;2023-02-28T11:06:08;103044.34;;;6.81;100.00
13732;BME280;6937;56.096;12.664;2023-02-28T11:08:55;103035.44;;;6.84;100.00
13732;BME280;6937;56.096;12.664;2023-02-28T11:11:24;103026.69;;;6.78;100.00
13732;BME280;6937;56.096;12.664;2023-02-28T11:13:53;103028.25;;;6.87;100.00
13732;BME280;6937;56.096;12.664;2023-02-28T11:16:20;103041.38;;;6.96;100.00
13732;BME280;6937;56.096;12.664;2023-02-28T11:18:52;103032.22;;;7.09;100.00
13732;BME280;6937;56.096;12.664;2023-02-28T11:21:28;103018.91;;;7.09;100.00
13732;BME280;6937;56.096;12.664;2023-02-28T11:24:15;103020.59;;;7.13;100.00
13732;BME280;6937;56.096;12.664;2023-02-28T11:26:47;103020.59;;;7.15;100.00
13732;BME280;6937;56.096;12.664;2023-02-28T11:31:42;103014.38;;;7.14;100.00
13732;BME280;6937;56.096;12.664;2023-02-28T11:34:25;103019.78;;;7.10;100.00
13732;BME280;6937;56.096;12.664;2023-02-28T11:36:54;103019.78;;;7.10;100.00
13732;BME280;6937;56.096;12.664;2023-02-28T11:39:19;103028.75;;;7.06;100.00
13732;BME280;6937;56.096;12.664;2023-02-28T11:45:11;103009.25;;;7.05;100.00
13732;BME280;6937;56.096;12.664;2023-02-28T11:53:39;103005.78;;;7.02;100.00
13732;BME280;6937;56.096;12.664;2023-02-28T11:56:39;103004.09;;;6.98;100.00
13732;BME280;6937;56.096;12.664;2023-02-28T12:07:31;102992.31;;;7.09;100.00
13732;BME280;6937;56.096;12.664;2023-02-28T12:18:06;102965.81;;;7.43;100.00
13732;BME280;6937;56.096;12.664;2023-02-28T12:21:08;102966.69;;;7.44;100.00
13732;BME280;6937;56.096;12.664;2023-02-28T12:23:52;102948.13;;;7.42;100.00
13732;BME280;6937;56.096;12.664;2023-02-28T12:26:36;102944.69;;;7.37;100.00
13732;BME280;6937;56.096;12.664;2023-02-28T12:34:53;102941.06;;;7.41;100.00
13732;BME280;6937;56.096;12.664;2023-02-28T12:37:41;102939.59;;;7.63;100.00
13732;BME280;6937;56.096;12.664;2023-02-28T12:40:15;102922.78;;;7.61;100.00
13732;BME280;6937;56.096;12.664;2023-02-28T12:42:45;102923.56;;;7.66;100.00
13732;BME280;6937;56.096;12.664;2023-02-28T12:45:20;102909.28;;;7.69;100.00
13732;BME280;6937;56.096;12.664;2023-02-28T12:47:56;102886.31;;;7.65;100.00
13732;BME280;6937;56.096;12.664;2023-02-28T12:50:22;102891.38;;;7.75;100.00
13732;BME280;6937;56.096;12.664;2023-02-28T12:56:01;102895.25;;;7.96;100.00
13732;BME280;6937;56.096;12.664;2023-02-28T12:58:56;102891.69;;;7.96;100.00
13732;BME280;6937;56.096;12.664;2023-02-28T13:01:34;102886.38;;;7.96;100.00
13732;BME280;6937;56.096;12.664;2023-02-28T13:07:08;102885.75;;;7.86;100.00
13732;BME280;6937;56.096;12.664;2023-02-28T13:09:39;102879.34;;;7.93;100.00
13732;BME280;6937;56.096;12.664;2023-02-28T13:12:15;102881.75;;;8.02;100.00
13732;BME280;6937;56.096;12.664;2023-02-28T13:14:41;102888.63;;;8.11;100.00
13732;BME280;6937;56.096;12.664;2023-02-28T13:19:36;102857.06;;;8.28;100.00
13732;BME280;6937;56.096;12.664;2023-02-28T13:22:03;102854.63;;;8.20;100.00
13732;BME280;6937;56.096;12.664;2023-02-28T13:24:49;102859.06;;;8.20;100.00
13732;BME280;6937;56.096;12.664;2023-02-28T13:27:37;102865.03;;;8.28;100.00
13732;BME280;6937;56.096;12.664;2023-02-28T13:33:23;102872.16;;;8.58;100.00
13732;BME280;6937;56.096;12.664;2023-02-28T13:36:06;102879.59;;;8.77;100.00
13732;BME280;6937;56.096;12.664;2023-02-28T13:38:34;102874.19;;;8.78;100.00
13732;BME280;6937;56.096;12.664;2023-02-28T13:46:34;102863.47;;;9.07;100.00
13732;BME280;6937;56.096;12.664;2023-02-28T13:57:44;102848.09;;;9.91;100.00
13732;BME280;6937;56.096;12.664;2023-02-28T14:00:35;102852.59;;;11.05;100.00
13732;BME280;6937;56.096;12.664;2023-02-28T14:05:34;102792.66;;;12.65;100.00
13732;BME280;6937;56.096;12.664;2023-02-28T14:08:06;102778.50;;;13.16;100.00
13732;BME280;6937;56.096;12.664;2023-02-28T14:10:46;102762.69;;;13.44;100.00
13732;BME280;6937;56.096;12.664;2023-02-28T14:16:00;102745.16;;;14.03;100.00
13732;BME280;6937;56.096;12.664;2023-02-28T14:18:35;102755.38;;;13.96;100.00
13732;BME280;6937;56.096;12.664;2023-02-28T14:26:42;102727.81;;;13.10;100.00
13732;BME280;6937;56.096;12.664;2023-02-28T14:32:44;102749.56;;;13.55;100.00
13732;BME280;6937;56.096;12.664;2023-02-28T14:37:59;102758.28;;;13.76;100.00
13732;BME280;6937;56.096;12.664;2023-02-28T14:40:30;102766.50;;;13.90;100.00
13732;BME280;6937;56.096;12.664;2023-02-28T14:43:05;102772.28;;;13.98;100.00
13732;BME280;6937;56.096;12.664;2023-02-28T14:45:32;102771.53;;;13.64;100.00
13732;BME280;6937;56.096;12.664;2023-02-28T14:48:01;102778.28;;;13.38;100.00
13732;BME280;6937;56.096;12.664;2023-02-28T14:50:36;102776.59;;;13.18;100.00
13732;BME280;6937;56.096;12.664;2023-02-28T14:53:02;102805.50;;;13.13;100.00
13732;BME280;6937;56.096;12.664;2023-02-28T14:55:34;102783.66;;;12.85;100.00
13732;BME280;6937;56.096;12.664;2023-02-28T14:58:05;102778.63;;;12.41;100.00
13732;BME280;6937;56.096;12.664;2023-02-28T15:00:36;102783.34;;;12.18;100.00
13732;BME280;6937;56.096;12.664;2023-02-28T15:03:23;102785.84;;;11.83;100.00
13732;BME280;6937;56.096;12.664;2023-02-28T15:05:54;102781.94;;;11.70;100.00